sensor_id;sensor_type;location;lat;lon;timestamp;P1;P4;P2;P0;N10;N4;N25;N1;N05;TS
79466;SPS30;68933;49.726;9.226;2023-04-25T00:02:05;5;;5;4.8;;;;;;
79466;SPS30;68933;49.726;9.226;2023-04-25T00:04:18;6;;6;5.7;;;;;;
79466;SPS30;68933;49.726;9.226;2023-04-25T00:06:32;6;;6;5.7;;;;;;
79466;SPS30;68933;49.726;9.226;2023-04-25T00:08:44;6;;6;5.7;;;;;;
79466;SPS30;68933;49.726;9.226;2023-04-25T00:10:57;4.3;;4.3;4.1;;;;;;
79466;SPS30;68933;49.726;9.226;2023-04-25T00:13:10;4.3;;4.3;4.1;;;;;;
79466;SPS30;68933;49.726;9.226;2023-04-25T00:15:24;3.7;;3.7;3.6;;;;;;
79466;SPS30;68933;49.726;9.226;2023-04-25T00:17:36;3.7;;3.7;3.6;;;;;;
79466;SPS30;68933;49.726;9.226;2023-04-25T00:19:49;3.3;;3.3;3.2;;;;;;
79466;SPS30;68933;49.726;9.226;2023-04-25T00:22:03;3.3;;3.3;3.2;;;;;;
79466;SPS30;68933;49.726;9.226;2023-04-25T00:24:15;3.4;;3.4;3.3;;;;;;
79466;SPS30;68933;49.726;9.226;2023-04-25T00:26:28;3.4;;3.4;3.3;;;;;;
79466;SPS30;68933;49.726;9.226;2023-04-25T00:28:41;3.4;;3.4;3.3;;;;;;
79466;SPS30;68933;49.726;9.226;2023-04-25T00:30:54;3.2;;3.2;3;;;;;;
79466;SPS30;68933;49.726;9.226;2023-04-25T00:33:07;3.2;;3.2;3;;;;;;
79466;SPS30;68933;49.726;9.226;2023-04-25T00:35:20;3.2;;3.2;3;;;;;;
79466;SPS30;68933;49.726;9.226;2023-04-25T00:37:33;3.2;;3.2;3;;;;;;
79466;SPS30;68933;49.726;9.226;2023-04-25T00:39:46;2.8;;2.8;2.7;;;;;;
79466;SPS30;68933;49.726;9.226;2023-04-25T00:42:00;2.8;;2.8;2.7;;;;;;
79466;SPS30;68933;49.726;9.226;2023-04-25T00:44:12;2.3;;2.3;2.2;;;;;;
79466;SPS30;68933;49.726;9.226;2023-04-25T00:46:25;2.3;;2.3;2.2;;;;;;
79466;SPS30;68933;49.726;9.226;2023-04-25T00:48:38;2.7;;2.7;2.5;;;;;;
79466;SPS30;68933;49.726;9.226;2023-04-25T00:50:52;2.7;;2.7;2.5;;;;;;
79466;SPS30;68933;49.726;9.226;2023-04-25T00:53:04;2;;2;1.9;;;;;;
79466;SPS30;68933;49.726;9.226;2023-04-25T00:55:17;2;;2;1.9;;;;;;
79466;SPS30;68933;49.726;9.226;2023-04-25T00:57:30;2;;2;1.9;;;;;;
79466;SPS30;68933;49.726;9.226;2023-04-25T00:59:44;2.7;;2.7;2.6;;;;;;
79466;SPS30;68933;49.726;9.226;2023-04-25T01:01:56;2.7;;2.7;2.6;;;;;;
79466;SPS30;68933;49.726;9.226;2023-04-25T01:04:09;2.4;;2.4;2.3;;;;;;
79466;SPS30;68933;49.726;9.226;2023-04-25T01:06:22;2.4;;2.4;2.3;;;;;;
79466;SPS30;68933;49.726;9.226;2023-04-25T01:08:37;2.4;;2.4;2.3;;;;;;
79466;SPS30;68933;49.726;9.226;2023-04-25T01:10:48;2.4;;2.4;2.3;;;;;;
79466;SPS30;68933;49.726;9.226;2023-04-25T01:13:01;1.9;;1.9;1.8;;;;;;
79466;SPS30;68933;49.726;9.226;2023-04-25T01:15:14;1.9;;1.9;1.8;;;;;;
79466;SPS30;68933;49.726;9.226;2023-04-25T01:17:27;1.7;;1.7;1.6;;;;;;
79466;SPS30;68933;49.726;9.226;2023-04-25T01:19:41;1.7;;1.7;1.6;;;;;;
79466;SPS30;68933;49.726;9.226;2023-04-25T01:21:53;1.7;;1.7;1.6;;;;;;
79466;SPS30;68933;49.726;9.226;2023-04-25T01:24:06;1.6;;1.6;1.6;;;;;;
79466;SPS30;68933;49.726;9.226;2023-04-25T01:26:19;1.6;;1.6;1.6;;;;;;
79466;SPS30;68933;49.726;9.226;2023-04-25T01:28:32;2.6;;2.6;2.5;;;;;;
79466;SPS30;68933;49.726;9.226;2023-04-25T01:30:45;2.6;;2.6;2.5;;;;;;
79466;SPS30;68933;49.726;9.226;2023-04-25T01:32:58;2.6;;2.6;2.5;;;;;;
79466;SPS30;68933;49.726;9.226;2023-04-25T01:35:11;2.7;;2.7;2.6;;;;;;
79466;SPS30;68933;49.726;9.226;2023-04-25T01:37:24;2.7;;2.7;2.6;;;;;;
79466;SPS30;68933;49.726;9.226;2023-04-25T01:39:37;2.6;;2.6;2.5;;;;;;
79466;SPS30;68933;49.726;9.226;2023-04-25T01:41:50;2.6;;2.6;2.5;;;;;;
79466;SPS30;68933;49.726;9.226;2023-04-25T01:44:03;4.3;;4.3;4.1;;;;;;
79466;SPS30;68933;49.726;9.226;2023-04-25T01:46:16;4.3;;4.3;4.1;;;;;;
79466;SPS30;68933;49.726;9.226;2023-04-25T01:48:29;4.3;;4.3;4.1;;;;;;
79466;SPS30;68933;49.726;9.226;2023-04-25T01:50:43;4.7;;4.7;4.4;;;;;;
79466;SPS30;68933;49.726;9.226;2023-04-25T01:52:55;4.7;;4.7;4.4;;;;;;
79466;SPS30;68933;49.726;9.226;2023-04-25T01:55:09;6.1;;6;5.7;;;;;;
79466;SPS30;68933;49.726;9.226;2023-04-25T01:57:21;6.1;;6;5.7;;;;;;
79466;SPS30;68933;49.726;9.226;2023-04-25T01:59:34;6.1;;6;5.7;;;;;;
79466;SPS30;68933;49.726;9.226;2023-04-25T02:01:47;4.2;;4.2;4;;;;;;
79466;SPS30;68933;49.726;9.226;2023-04-25T02:04:00;4.2;;4.2;4;;;;;;
79466;SPS30;68933;49.726;9.226;2023-04-25T02:06:13;2.9;;2.9;2.7;;;;;;
79466;SPS30;68933;49.726;9.226;2023-04-25T02:08:26;2.9;;2.9;2.7;;;;;;
79466;SPS30;68933;49.726;9.226;2023-04-25T02:10:39;2.7;;2.7;2.6;;;;;;
79466;SPS30;68933;49.726;9.226;2023-04-25T02:12:52;2.7;;2.7;2.6;;;;;;
79466;SPS30;68933;49.726;9.226;2023-04-25T02:15:06;2.7;;2.7;2.6;;;;;;
79466;SPS30;68933;49.726;9.226;2023-04-25T02:17:18;3;;3;2.9;;;;;;
79466;SPS30;68933;49.726;9.226;2023-04-25T02:19:31;3;;3;2.9;;;;;;
79466;SPS30;68933;49.726;9.226;2023-04-25T02:21:44;2.9;;2.9;2.8;;;;;;
79466;SPS30;68933;49.726;9.226;2023-04-25T02:23:57;2.9;;2.9;2.8;;;;;;
79466;SPS30;68933;49.726;9.226;2023-04-25T02:26:10;3.8;;3.8;3.7;;;;;;
79466;SPS30;68933;49.726;9.226;2023-04-25T02:28:24;3.8;;3.8;3.7;;;;;;
79466;SPS30;68933;49.726;9.226;2023-04-25T02:30:36;3.8;;3.8;3.7;;;;;;
79466;SPS30;68933;49.726;9.226;2023-04-25T02:32:49;4.4;;4.4;4.2;;;;;;
79466;SPS30;68933;49.726;9.226;2023-04-25T02:35:02;4.4;;4.4;4.2;;;;;;
79466;SPS30;68933;49.726;9.226;2023-04-25T02:37:15;3.9;;3.9;3.7;;;;;;
79466;SPS30;68933;49.726;9.226;2023-04-25T02:39:28;3.9;;3.9;3.7;;;;;;
79466;SPS30;68933;49.726;9.226;2023-04-25T02:41:41;4.2;;4.2;4;;;;;;
79466;SPS30;68933;49.726;9.226;2023-04-25T02:43:55;4.2;;4.2;4;;;;;;
79466;SPS30;68933;49.726;9.226;2023-04-25T02:46:07;4.2;;4.2;4;;;;;;
79466;SPS30;68933;49.726;9.226;2023-04-25T02:48:20;4.2;;4.2;4;;;;;;
79466;SPS30;68933;49.726;9.226;2023-04-25T02:50:33;4.2;;4.2;4;;;;;;
79466;SPS30;68933;49.726;9.226;2023-04-25T02:52:46;4.9;;4.9;4.7;;;;;;
79466;SPS30;68933;49.726;9.226;2023-04-25T02:54:59;4.9;;4.9;4.7;;;;;;
79466;SPS30;68933;49.726;9.226;2023-04-25T02:57:12;4.8;;4.8;4.6;;;;;;
79466;SPS30;68933;49.726;9.226;2023-04-25T02:59:25;4.8;;4.8;4.6;;;;;;
79466;SPS30;68933;49.726;9.226;2023-04-25T03:01:38;4.7;;4.7;4.4;;;;;;
79466;SPS30;68933;49.726;9.226;2023-04-25T03:03:51;4.7;;4.7;4.4;;;;;;
79466;SPS30;68933;49.726;9.226;2023-04-25T03:06:04;4.7;;4.7;4.4;;;;;;
79466;SPS30;68933;49.726;9.226;2023-04-25T03:08:17;4.4;;4.4;4.2;;;;;;
79466;SPS30;68933;49.726;9.226;2023-04-25T03:10:30;4.4;;4.4;4.2;;;;;;
79466;SPS30;68933;49.726;9.226;2023-04-25T03:12:43;4.2;;4.2;4;;;;;;
79466;SPS30;68933;49.726;9.226;2023-04-25T03:14:56;4.2;;4.2;4;;;;;;
79466;SPS30;68933;49.726;9.226;2023-04-25T03:17:09;4.5;;4.5;4.3;;;;;;
79466;SPS30;68933;49.726;9.226;2023-04-25T03:19:22;4.5;;4.5;4.3;;;;;;
79466;SPS30;68933;49.726;9.226;2023-04-25T03:21:35;4.7;;4.7;4.5;;;;;;
79466;SPS30;68933;49.726;9.226;2023-04-25T03:23:48;4.7;;4.7;4.5;;;;;;
79466;SPS30;68933;49.726;9.226;2023-04-25T03:26:01;4.3;;4.3;4.1;;;;;;
79466;SPS30;68933;49.726;9.226;2023-04-25T03:28:14;4.3;;4.3;4.1;;;;;;
79466;SPS30;68933;49.726;9.226;2023-04-25T03:30:27;4.3;;4.3;4.1;;;;;;
79466;SPS30;68933;49.726;9.226;2023-04-25T03:32:40;4.4;;4.4;4.2;;;;;;
79466;SPS30;68933;49.726;9.226;2023-04-25T03:34:53;4.4;;4.4;4.2;;;;;;
79466;SPS30;68933;49.726;9.226;2023-04-25T03:37:06;4.6;;4.6;4.4;;;;;;
79466;SPS30;68933;49.726;9.226;2023-04-25T03:39:19;4.6;;4.6;4.4;;;;;;
79466;SPS30;68933;49.726;9.226;2023-04-25T03:41:32;5;;5;4.8;;;;;;
79466;SPS30;68933;49.726;9.226;2023-04-25T03:43:45;5;;5;4.8;;;;;;
79466;SPS30;68933;49.726;9.226;2023-04-25T03:45:58;4.8;;4.8;4.6;;;;;;
79466;SPS30;68933;49.726;9.226;2023-04-25T03:48:11;4.8;;4.8;4.6;;;;;;
79466;SPS30;68933;49.726;9.226;2023-04-25T03:50:24;5.2;;5.2;5;;;;;;
79466;SPS30;68933;49.726;9.226;2023-04-25T03:52:37;5.2;;5.2;5;;;;;;
79466;SPS30;68933;49.726;9.226;2023-04-25T03:54:50;4.3;;4.3;4.1;;;;;;
79466;SPS30;68933;49.726;9.226;2023-04-25T03:57:03;4.3;;4.3;4.1;;;;;;
79466;SPS30;68933;49.726;9.226;2023-04-25T03:59:16;4.3;;4.3;4.1;;;;;;
79466;SPS30;68933;49.726;9.226;2023-04-25T04:01:29;4.6;;4.6;4.4;;;;;;
79466;SPS30;68933;49.726;9.226;2023-04-25T04:03:42;4.6;;4.6;4.4;;;;;;
79466;SPS30;68933;49.726;9.226;2023-04-25T04:05:55;5.2;;5.2;5;;;;;;
79466;SPS30;68933;49.726;9.226;2023-04-25T04:08:08;5.2;;5.2;5;;;;;;
79466;SPS30;68933;49.726;9.226;2023-04-25T04:10:22;5.2;;5.2;5;;;;;;
79466;SPS30;68933;49.726;9.226;2023-04-25T04:12:34;5.5;;5.5;5.2;;;;;;
79466;SPS30;68933;49.726;9.226;2023-04-25T04:14:47;5.5;;5.5;5.2;;;;;;
79466;SPS30;68933;49.726;9.226;2023-04-25T04:17:00;5.9;;5.9;5.6;;;;;;
79466;SPS30;68933;49.726;9.226;2023-04-25T04:19:14;5.9;;5.9;5.6;;;;;;
79466;SPS30;68933;49.726;9.226;2023-04-25T04:21:26;5.9;;5.9;5.6;;;;;;
79466;SPS30;68933;49.726;9.226;2023-04-25T04:23:39;7.8;;7.8;7.4;;;;;;
79466;SPS30;68933;49.726;9.226;2023-04-25T04:25:52;7.8;;7.8;7.4;;;;;;
79466;SPS30;68933;49.726;9.226;2023-04-25T04:28:05;10.4;;10.4;9.9;;;;;;
79466;SPS30;68933;49.726;9.226;2023-04-25T04:30:18;10.4;;10.4;9.9;;;;;;
79466;SPS30;68933;49.726;9.226;2023-04-25T04:32:31;6.8;;6.8;6.5;;;;;;
79466;SPS30;68933;49.726;9.226;2023-04-25T04:34:44;6.8;;6.8;6.5;;;;;;
79466;SPS30;68933;49.726;9.226;2023-04-25T04:36:57;6.8;;6.8;6.5;;;;;;
79466;SPS30;68933;49.726;9.226;2023-04-25T04:39:10;6.6;;6.6;6.3;;;;;;
79466;SPS30;68933;49.726;9.226;2023-04-25T04:41:23;6.6;;6.6;6.3;;;;;;
79466;SPS30;68933;49.726;9.226;2023-04-25T04:43:36;12.6;;12.6;12;;;;;;
79466;SPS30;68933;49.726;9.226;2023-04-25T04:45:49;12.6;;12.6;12;;;;;;
79466;SPS30;68933;49.726;9.226;2023-04-25T04:48:02;11.9;;11.9;11.4;;;;;;
79466;SPS30;68933;49.726;9.226;2023-04-25T04:50:16;11.9;;11.9;11.4;;;;;;
79466;SPS30;68933;49.726;9.226;2023-04-25T04:52:28;11.9;;11.9;11.4;;;;;;
79466;SPS30;68933;49.726;9.226;2023-04-25T04:54:41;9.1;;9.1;8.6;;;;;;
79466;SPS30;68933;49.726;9.226;2023-04-25T04:56:54;9.1;;9.1;8.6;;;;;;
79466;SPS30;68933;49.726;9.226;2023-04-25T04:59:07;10.1;;10.1;9.6;;;;;;
79466;SPS30;68933;49.726;9.226;2023-04-25T05:01:20;10.1;;10.1;9.6;;;;;;
79466;SPS30;68933;49.726;9.226;2023-04-25T05:03:33;10.1;;10.1;9.6;;;;;;
79466;SPS30;68933;49.726;9.226;2023-04-25T05:05:46;6.5;;6.5;6.2;;;;;;
79466;SPS30;68933;49.726;9.226;2023-04-25T05:07:59;6.5;;6.5;6.2;;;;;;
79466;SPS30;68933;49.726;9.226;2023-04-25T05:10:12;8;;8;7.6;;;;;;
79466;SPS30;68933;49.726;9.226;2023-04-25T05:12:25;8;;8;7.6;;;;;;
79466;SPS30;68933;49.726;9.226;2023-04-25T05:14:38;8.6;;8.6;8.2;;;;;;
79466;SPS30;68933;49.726;9.226;2023-04-25T05:16:51;8.6;;8.6;8.2;;;;;;
79466;SPS30;68933;49.726;9.226;2023-04-25T05:19:04;8.6;;8.6;8.2;;;;;;
79466;SPS30;68933;49.726;9.226;2023-04-25T05:21:17;7.2;;7.2;6.9;;;;;;
79466;SPS30;68933;49.726;9.226;2023-04-25T05:23:30;7.2;;7.2;6.9;;;;;;
79466;SPS30;68933;49.726;9.226;2023-04-25T05:25:43;6.7;;6.7;6.4;;;;;;
79466;SPS30;68933;49.726;9.226;2023-04-25T05:27:56;6.7;;6.7;6.4;;;;;;
79466;SPS30;68933;49.726;9.226;2023-04-25T05:30:10;7.2;;7.2;6.8;;;;;;
79466;SPS30;68933;49.726;9.226;2023-04-25T05:32:22;7.2;;7.2;6.8;;;;;;
79466;SPS30;68933;49.726;9.226;2023-04-25T05:34:35;6.8;;6.8;6.5;;;;;;
79466;SPS30;68933;49.726;9.226;2023-04-25T05:36:48;6.8;;6.8;6.5;;;;;;
79466;SPS30;68933;49.726;9.226;2023-04-25T05:39:01;6.8;;6.8;6.5;;;;;;
79466;SPS30;68933;49.726;9.226;2023-04-25T05:41:14;6.7;;6.7;6.4;;;;;;
79466;SPS30;68933;49.726;9.226;2023-04-25T05:43:27;6.7;;6.7;6.4;;;;;;
79466;SPS30;68933;49.726;9.226;2023-04-25T05:45:40;6.6;;6.6;6.3;;;;;;
79466;SPS30;68933;49.726;9.226;2023-04-25T05:47:53;6.6;;6.6;6.3;;;;;;
79466;SPS30;68933;49.726;9.226;2023-04-25T05:50:07;7.3;;7.3;6.9;;;;;;
79466;SPS30;68933;49.726;9.226;2023-04-25T05:52:19;7.3;;7.3;6.9;;;;;;
79466;SPS30;68933;49.726;9.226;2023-04-25T05:54:32;7.9;;7.9;7.6;;;;;;
79466;SPS30;68933;49.726;9.226;2023-04-25T05:56:45;7.9;;7.9;7.6;;;;;;
79466;SPS30;68933;49.726;9.226;2023-04-25T05:58:58;7.9;;7.9;7.6;;;;;;
79466;SPS30;68933;49.726;9.226;2023-04-25T06:01:11;8.6;;8.6;8.2;;;;;;
79466;SPS30;68933;49.726;9.226;2023-04-25T06:03:24;8.6;;8.6;8.2;;;;;;
79466;SPS30;68933;49.726;9.226;2023-04-25T06:05:37;14.1;;14.1;13.5;;;;;;
79466;SPS30;68933;49.726;9.226;2023-04-25T06:07:50;14.1;;14.1;13.5;;;;;;
79466;SPS30;68933;49.726;9.226;2023-04-25T06:10:04;10.6;;10.6;10.1;;;;;;
79466;SPS30;68933;49.726;9.226;2023-04-25T06:12:17;10.6;;10.6;10.1;;;;;;
79466;SPS30;68933;49.726;9.226;2023-04-25T06:14:29;10.6;;10.6;10.1;;;;;;
79466;SPS30;68933;49.726;9.226;2023-04-25T06:16:42;10.8;;10.8;10.3;;;;;;
79466;SPS30;68933;49.726;9.226;2023-04-25T06:18:55;10.8;;10.8;10.3;;;;;;
79466;SPS30;68933;49.726;9.226;2023-04-25T06:21:08;9.8;;9.8;9.4;;;;;;
79466;SPS30;68933;49.726;9.226;2023-04-25T06:23:21;9.8;;9.8;9.4;;;;;;
79466;SPS30;68933;49.726;9.226;2023-04-25T06:25:34;7.2;;7;6.6;;;;;;
79466;SPS30;68933;49.726;9.226;2023-04-25T06:27:47;7.2;;7;6.6;;;;;;
79466;SPS30;68933;49.726;9.226;2023-04-25T06:30:00;9.6;;9.6;9.2;;;;;;
79466;SPS30;68933;49.726;9.226;2023-04-25T06:32:13;9.6;;9.6;9.2;;;;;;
79466;SPS30;68933;49.726;9.226;2023-04-25T06:34:26;9.6;;9.6;9.2;;;;;;
79466;SPS30;68933;49.726;9.226;2023-04-25T06:36:39;10.1;;10;9.4;;;;;;
79466;SPS30;68933;49.726;9.226;2023-04-25T06:38:52;10.1;;10;9.4;;;;;;
79466;SPS30;68933;49.726;9.226;2023-04-25T06:41:05;11.3;;11.2;10.6;;;;;;
79466;SPS30;68933;49.726;9.226;2023-04-25T06:43:18;11.3;;11.2;10.6;;;;;;
79466;SPS30;68933;49.726;9.226;2023-04-25T06:45:31;7.7;;7.7;7.3;;;;;;
79466;SPS30;68933;49.726;9.226;2023-04-25T06:47:44;7.7;;7.7;7.3;;;;;;
79466;SPS30;68933;49.726;9.226;2023-04-25T06:49:57;7.9;;7.9;7.5;;;;;;
79466;SPS30;68933;49.726;9.226;2023-04-25T06:52:10;7.9;;7.9;7.5;;;;;;
79466;SPS30;68933;49.726;9.226;2023-04-25T06:54:23;8.5;;8.5;8.1;;;;;;
79466;SPS30;68933;49.726;9.226;2023-04-25T06:56:36;8.5;;8.5;8.1;;;;;;
79466;SPS30;68933;49.726;9.226;2023-04-25T06:58:49;8.5;;8.5;8.1;;;;;;
79466;SPS30;68933;49.726;9.226;2023-04-25T07:01:02;9;;8.9;8.4;;;;;;
79466;SPS30;68933;49.726;9.226;2023-04-25T07:03:15;9;;8.9;8.4;;;;;;
79466;SPS30;68933;49.726;9.226;2023-04-25T07:05:28;9.2;;9.1;8.5;;;;;;
79466;SPS30;68933;49.726;9.226;2023-04-25T07:07:41;9.2;;9.1;8.5;;;;;;
79466;SPS30;68933;49.726;9.226;2023-04-25T07:09:54;9.3;;9.3;8.9;;;;;;
79466;SPS30;68933;49.726;9.226;2023-04-25T07:12:07;9.3;;9.3;8.9;;;;;;
79466;SPS30;68933;49.726;9.226;2023-04-25T07:14:20;10;;10;9.5;;;;;;
79466;SPS30;68933;49.726;9.226;2023-04-25T07:16:33;10;;10;9.5;;;;;;
79466;SPS30;68933;49.726;9.226;2023-04-25T07:18:46;10;;10;9.5;;;;;;
79466;SPS30;68933;49.726;9.226;2023-04-25T07:20:59;9.5;;9.5;9;;;;;;
79466;SPS30;68933;49.726;9.226;2023-04-25T07:23:12;9.5;;9.5;9;;;;;;
79466;SPS30;68933;49.726;9.226;2023-04-25T07:25:25;11.4;;11.4;10.8;;;;;;
79466;SPS30;68933;49.726;9.226;2023-04-25T07:27:38;11.4;;11.4;10.8;;;;;;
79466;SPS30;68933;49.726;9.226;2023-04-25T07:29:51;9.7;;9.6;9.1;;;;;;
79466;SPS30;68933;49.726;9.226;2023-04-25T07:32:04;9.7;;9.6;9.1;;;;;;
79466;SPS30;68933;49.726;9.226;2023-04-25T07:34:17;9.7;;9.6;9.1;;;;;;
79466;SPS30;68933;49.726;9.226;2023-04-25T07:36:30;10.1;;10.1;9.6;;;;;;
79466;SPS30;68933;49.726;9.226;2023-04-25T07:38:43;10.1;;10.1;9.6;;;;;;
79466;SPS30;68933;49.726;9.226;2023-04-25T07:40:56;10.1;;10.1;9.6;;;;;;
79466;SPS30;68933;49.726;9.226;2023-04-25T07:43:09;9.2;;9.2;8.8;;;;;;
79466;SPS30;68933;49.726;9.226;2023-04-25T07:45:22;9.2;;9.2;8.8;;;;;;
79466;SPS30;68933;49.726;9.226;2023-04-25T07:47:35;11.7;;11.7;11.2;;;;;;
79466;SPS30;68933;49.726;9.226;2023-04-25T07:49:48;11.7;;11.7;11.2;;;;;;
79466;SPS30;68933;49.726;9.226;2023-04-25T07:52:02;10.4;;10.3;9.8;;;;;;
79466;SPS30;68933;49.726;9.226;2023-04-25T07:54:15;10.4;;10.3;9.8;;;;;;
79466;SPS30;68933;49.726;9.226;2023-04-25T07:56:27;10.4;;10.3;9.8;;;;;;
79466;SPS30;68933;49.726;9.226;2023-04-25T07:58:40;9.1;;9.1;8.7;;;;;;
79466;SPS30;68933;49.726;9.226;2023-04-25T08:00:53;9.1;;9.1;8.7;;;;;;
79466;SPS30;68933;49.726;9.226;2023-04-25T08:03:06;9;;9;8.6;;;;;;
79466;SPS30;68933;49.726;9.226;2023-04-25T08:05:19;9;;9;8.6;;;;;;
79466;SPS30;68933;49.726;9.226;2023-04-25T08:07:32;9;;9;8.6;;;;;;
79466;SPS30;68933;49.726;9.226;2023-04-25T08:09:45;9.3;;9.3;8.9;;;;;;
79466;SPS30;68933;49.726;9.226;2023-04-25T08:11:58;9.3;;9.3;8.9;;;;;;
79466;SPS30;68933;49.726;9.226;2023-04-25T08:14:11;7.7;;7.7;7.4;;;;;;
79466;SPS30;68933;49.726;9.226;2023-04-25T08:16:25;7.7;;7.7;7.4;;;;;;
79466;SPS30;68933;49.726;9.226;2023-04-25T08:18:37;8.1;;8.1;7.7;;;;;;
79466;SPS30;68933;49.726;9.226;2023-04-25T08:20:50;8.1;;8.1;7.7;;;;;;
79466;SPS30;68933;49.726;9.226;2023-04-25T08:23:03;8.1;;8.1;7.7;;;;;;
79466;SPS30;68933;49.726;9.226;2023-04-25T08:25:16;6.4;;6.4;6.1;;;;;;
79466;SPS30;68933;49.726;9.226;2023-04-25T08:27:29;6.4;;6.4;6.1;;;;;;
79466;SPS30;68933;49.726;9.226;2023-04-25T08:29:42;6.7;;6.7;6.4;;;;;;
79466;SPS30;68933;49.726;9.226;2023-04-25T08:31:55;6.7;;6.7;6.4;;;;;;
79466;SPS30;68933;49.726;9.226;2023-04-25T08:34:08;5.9;;5.9;5.6;;;;;;
79466;SPS30;68933;49.726;9.226;2023-04-25T08:36:21;5.9;;5.9;5.6;;;;;;
79466;SPS30;68933;49.726;9.226;2023-04-25T08:38:34;5.9;;5.9;5.6;;;;;;
79466;SPS30;68933;49.726;9.226;2023-04-25T08:40:48;4.1;;4.1;3.9;;;;;;
79466;SPS30;68933;49.726;9.226;2023-04-25T08:43:00;4.1;;4.1;3.9;;;;;;
79466;SPS30;68933;49.726;9.226;2023-04-25T08:45:13;4.3;;4.3;4.1;;;;;;
79466;SPS30;68933;49.726;9.226;2023-04-25T08:47:26;4.3;;4.3;4.1;;;;;;
79466;SPS30;68933;49.726;9.226;2023-04-25T08:49:39;3.7;;3.7;3.5;;;;;;
79466;SPS30;68933;49.726;9.226;2023-04-25T08:51:52;3.7;;3.7;3.5;;;;;;
79466;SPS30;68933;49.726;9.226;2023-04-25T08:54:08;3.7;;3.7;3.5;;;;;;
79466;SPS30;68933;49.726;9.226;2023-04-25T08:56:18;3.9;;3.9;3.7;;;;;;
79466;SPS30;68933;49.726;9.226;2023-04-25T08:58:31;3.9;;3.9;3.7;;;;;;
79466;SPS30;68933;49.726;9.226;2023-04-25T09:00:45;4.1;;4.1;3.9;;;;;;
79466;SPS30;68933;49.726;9.226;2023-04-25T09:02:58;4.1;;4.1;3.9;;;;;;
79466;SPS30;68933;49.726;9.226;2023-04-25T09:05:12;4.1;;4.1;3.9;;;;;;
79466;SPS30;68933;49.726;9.226;2023-04-25T09:07:23;4.1;;4.1;3.9;;;;;;
79466;SPS30;68933;49.726;9.226;2023-04-25T09:09:36;4.3;;4.2;4;;;;;;
79466;SPS30;68933;49.726;9.226;2023-04-25T09:11:49;4.3;;4.2;4;;;;;;
79466;SPS30;68933;49.726;9.226;2023-04-25T09:14:10;4.3;;4.2;4;;;;;;
79466;SPS30;68933;49.726;9.226;2023-04-25T09:16:15;4.2;;4.1;3.9;;;;;;
79466;SPS30;68933;49.726;9.226;2023-04-25T09:18:29;4.2;;4.1;3.9;;;;;;
79466;SPS30;68933;49.726;9.226;2023-04-25T09:20:42;4.6;;4.6;4.3;;;;;;
79466;SPS30;68933;49.726;9.226;2023-04-25T09:23:02;4.6;;4.6;4.3;;;;;;
79466;SPS30;68933;49.726;9.226;2023-04-25T09:25:08;4;;4;3.8;;;;;;
79466;SPS30;68933;49.726;9.226;2023-04-25T09:27:21;4;;4;3.8;;;;;;
79466;SPS30;68933;49.726;9.226;2023-04-25T09:29:34;4;;4;3.8;;;;;;
79466;SPS30;68933;49.726;9.226;2023-04-25T09:31:46;4;;4;3.8;;;;;;
79466;SPS30;68933;49.726;9.226;2023-04-25T09:33:59;3.9;;3.9;3.8;;;;;;
79466;SPS30;68933;49.726;9.226;2023-04-25T09:36:12;3.9;;3.9;3.8;;;;;;
79466;SPS30;68933;49.726;9.226;2023-04-25T09:38:25;3.9;;3.9;3.8;;;;;;
79466;SPS30;68933;49.726;9.226;2023-04-25T09:40:39;3.8;;3.8;3.6;;;;;;
79466;SPS30;68933;49.726;9.226;2023-04-25T09:42:51;3.8;;3.8;3.6;;;;;;
79466;SPS30;68933;49.726;9.226;2023-04-25T09:45:04;4;;4;3.8;;;;;;
79466;SPS30;68933;49.726;9.226;2023-04-25T09:47:17;4;;4;3.8;;;;;;
79466;SPS30;68933;49.726;9.226;2023-04-25T09:49:30;3.7;;3.7;3.5;;;;;;
79466;SPS30;68933;49.726;9.226;2023-04-25T09:51:47;3.7;;3.7;3.5;;;;;;
79466;SPS30;68933;49.726;9.226;2023-04-25T09:53:56;4;;3.9;3.7;;;;;;
79466;SPS30;68933;49.726;9.226;2023-04-25T09:56:10;4;;3.9;3.7;;;;;;
79466;SPS30;68933;49.726;9.226;2023-04-25T09:58:23;4;;3.9;3.7;;;;;;
79466;SPS30;68933;49.726;9.226;2023-04-25T10:00:35;4.1;;4.1;3.9;;;;;;
79466;SPS30;68933;49.726;9.226;2023-04-25T10:02:48;4.1;;4.1;3.9;;;;;;
79466;SPS30;68933;49.726;9.226;2023-04-25T10:05:01;3.3;;3.3;3.1;;;;;;
79466;SPS30;68933;49.726;9.226;2023-04-25T10:07:14;3.3;;3.3;3.1;;;;;;
79466;SPS30;68933;49.726;9.226;2023-04-25T10:09:27;4.2;;4.2;4;;;;;;
79466;SPS30;68933;49.726;9.226;2023-04-25T10:11:40;4.2;;4.2;4;;;;;;
79466;SPS30;68933;49.726;9.226;2023-04-25T10:13:53;4;;4;3.8;;;;;;
79466;SPS30;68933;49.726;9.226;2023-04-25T10:16:06;4;;4;3.8;;;;;;
79466;SPS30;68933;49.726;9.226;2023-04-25T10:18:19;4.2;;4.2;4;;;;;;
79466;SPS30;68933;49.726;9.226;2023-04-25T10:20:32;4.2;;4.2;4;;;;;;
79466;SPS30;68933;49.726;9.226;2023-04-25T10:22:45;4.1;;4.1;3.9;;;;;;
79466;SPS30;68933;49.726;9.226;2023-04-25T10:24:58;4.1;;4.1;3.9;;;;;;
79466;SPS30;68933;49.726;9.226;2023-04-25T10:27:11;4.1;;4.1;3.9;;;;;;
79466;SPS30;68933;49.726;9.226;2023-04-25T10:29:25;4.2;;4.2;4;;;;;;
79466;SPS30;68933;49.726;9.226;2023-04-25T10:31:44;4.2;;4.2;4;;;;;;
79466;SPS30;68933;49.726;9.226;2023-04-25T10:33:50;4.5;;4.5;4.3;;;;;;
79466;SPS30;68933;49.726;9.226;2023-04-25T10:36:11;4.5;;4.5;4.3;;;;;;
79466;SPS30;68933;49.726;9.226;2023-04-25T10:38:16;4.5;;4.5;4.3;;;;;;
79466;SPS30;68933;49.726;9.226;2023-04-25T10:40:30;4.9;;4.9;4.7;;;;;;
79466;SPS30;68933;49.726;9.226;2023-04-25T10:42:42;4.9;;4.9;4.7;;;;;;
79466;SPS30;68933;49.726;9.226;2023-04-25T10:45:00;4.4;;4.4;4.2;;;;;;
79466;SPS30;68933;49.726;9.226;2023-04-25T10:47:08;4.4;;4.4;4.2;;;;;;
79466;SPS30;68933;49.726;9.226;2023-04-25T10:49:29;4.4;;4.4;4.2;;;;;;
79466;SPS30;68933;49.726;9.226;2023-04-25T10:51:34;5.3;;5.3;5.1;;;;;;
79466;SPS30;68933;49.726;9.226;2023-04-25T10:53:56;5.3;;5.3;5.1;;;;;;
79466;SPS30;68933;49.726;9.226;2023-04-25T10:56:01;6.9;;6.9;6.6;;;;;;
79466;SPS30;68933;49.726;9.226;2023-04-25T10:58:13;6.9;;6.9;6.6;;;;;;
79466;SPS30;68933;49.726;9.226;2023-04-25T11:00:26;6.5;;6.4;6.1;;;;;;
79466;SPS30;68933;49.726;9.226;2023-04-25T11:02:41;6.5;;6.4;6.1;;;;;;
79466;SPS30;68933;49.726;9.226;2023-04-25T11:04:52;6.5;;6.4;6.1;;;;;;
79466;SPS30;68933;49.726;9.226;2023-04-25T11:07:07;6.8;;6.8;6.4;;;;;;
79466;SPS30;68933;49.726;9.226;2023-04-25T11:09:18;6.8;;6.8;6.4;;;;;;
79466;SPS30;68933;49.726;9.226;2023-04-25T11:11:31;5.7;;5.7;5.4;;;;;;
79466;SPS30;68933;49.726;9.226;2023-04-25T11:13:47;5.7;;5.7;5.4;;;;;;
79466;SPS30;68933;49.726;9.226;2023-04-25T11:15:57;5.7;;5.7;5.4;;;;;;
79466;SPS30;68933;49.726;9.226;2023-04-25T11:18:15;4.5;;4.5;4.3;;;;;;
79466;SPS30;68933;49.726;9.226;2023-04-25T11:20:25;4.5;;4.5;4.3;;;;;;
79466;SPS30;68933;49.726;9.226;2023-04-25T11:22:37;5;;5;4.7;;;;;;
79466;SPS30;68933;49.726;9.226;2023-04-25T11:24:49;5;;5;4.7;;;;;;
79466;SPS30;68933;49.726;9.226;2023-04-25T11:27:02;5.9;;5.9;5.6;;;;;;
79466;SPS30;68933;49.726;9.226;2023-04-25T11:29:15;5.9;;5.9;5.6;;;;;;
79466;SPS30;68933;49.726;9.226;2023-04-25T11:31:28;5.9;;5.9;5.6;;;;;;
79466;SPS30;68933;49.726;9.226;2023-04-25T11:33:41;5.7;;5.7;5.4;;;;;;
79466;SPS30;68933;49.726;9.226;2023-04-25T11:35:54;5.7;;5.7;5.4;;;;;;
79466;SPS30;68933;49.726;9.226;2023-04-25T11:38:07;5;;5;4.7;;;;;;
79466;SPS30;68933;49.726;9.226;2023-04-25T11:40:20;5;;5;4.7;;;;;;
79466;SPS30;68933;49.726;9.226;2023-04-25T11:42:33;4.3;;4.3;4.1;;;;;;
79466;SPS30;68933;49.726;9.226;2023-04-25T11:44:46;4.3;;4.3;4.1;;;;;;
79466;SPS30;68933;49.726;9.226;2023-04-25T11:46:59;4.3;;4.3;4.1;;;;;;
79466;SPS30;68933;49.726;9.226;2023-04-25T11:49:12;5.6;;5.5;5.2;;;;;;
79466;SPS30;68933;49.726;9.226;2023-04-25T11:51:25;5.6;;5.5;5.2;;;;;;
79466;SPS30;68933;49.726;9.226;2023-04-25T11:53:40;4.2;;4.2;4;;;;;;
79466;SPS30;68933;49.726;9.226;2023-04-25T11:55:51;4.2;;4.2;4;;;;;;
79466;SPS30;68933;49.726;9.226;2023-04-25T11:58:04;4.1;;4.1;4;;;;;;
79466;SPS30;68933;49.726;9.226;2023-04-25T12:00:18;4.1;;4.1;4;;;;;;
79466;SPS30;68933;49.726;9.226;2023-04-25T12:02:30;4.1;;4.1;4;;;;;;
79466;SPS30;68933;49.726;9.226;2023-04-25T12:04:43;5.1;;5.1;4.9;;;;;;
79466;SPS30;68933;49.726;9.226;2023-04-25T12:06:56;5.1;;5.1;4.9;;;;;;
79466;SPS30;68933;49.726;9.226;2023-04-25T12:09:11;5.2;;5.1;4.9;;;;;;
79466;SPS30;68933;49.726;9.226;2023-04-25T12:11:22;5.2;;5.1;4.9;;;;;;
79466;SPS30;68933;49.726;9.226;2023-04-25T12:13:35;4.4;;4.4;4.2;;;;;;
79466;SPS30;68933;49.726;9.226;2023-04-25T12:15:48;4.4;;4.4;4.2;;;;;;
79466;SPS30;68933;49.726;9.226;2023-04-25T12:18:01;4.4;;4.4;4.2;;;;;;
79466;SPS30;68933;49.726;9.226;2023-04-25T12:20:15;4.4;;4.4;4.2;;;;;;
79466;SPS30;68933;49.726;9.226;2023-04-25T12:22:28;4.4;;4.4;4.2;;;;;;
79466;SPS30;68933;49.726;9.226;2023-04-25T12:24:44;5.1;;5.1;4.8;;;;;;
79466;SPS30;68933;49.726;9.226;2023-04-25T12:26:55;5.1;;5.1;4.8;;;;;;
79466;SPS30;68933;49.726;9.226;2023-04-25T12:29:14;4.4;;4.4;4.2;;;;;;
79466;SPS30;68933;49.726;9.226;2023-04-25T12:31:19;4.4;;4.4;4.2;;;;;;
79466;SPS30;68933;49.726;9.226;2023-04-25T12:33:33;4.4;;4.4;4.2;;;;;;
79466;SPS30;68933;49.726;9.226;2023-04-25T12:35:45;4.4;;4.4;4.2;;;;;;
79466;SPS30;68933;49.726;9.226;2023-04-25T12:37:58;5.8;;5.8;5.5;;;;;;
79466;SPS30;68933;49.726;9.226;2023-04-25T12:40:11;5.8;;5.8;5.5;;;;;;